Startpagina
METAR-TAF:

METAR-TAF

Vliegvelden :

Internationale luchthaven Kunming Changshui

Kunming, China

breedte: 25-01N, lengte: 102-41E, hoogte: 1892 m

Actueel weer

Dit bericht is 35 minuten geleden gemaakt, om 18:00 UTC
Wind 6 kt uit het zuidzuidwesten
Temperatuur 17°C
Vochtigheid 88%
Druk 1025 hPa
Zicht 10 km of meer
Weinig wolken op 2000 ft
Gebroken wolken op 4000 ft

METAR: ZPPP 191800Z 20003MPS 9999 FEW020 BKN040 17/15 Q1025 NOSIG

Tijdstip: 02:35 (18:35 UTC)

Verwachting

Dit bericht is 5 uur en het 15 minuten geleden gemaakt, om 13:20 UTC
Verwachting geldig van 19 om 18 UTC tot 20 om 18 UTC
Wind 8 kt uit het zuidzuidwesten
Zicht 10 km of meer
Verspreide wolken op 2300 ft
Gebroken wolken op 4000 ft

TAF: ZPPP 191320Z 1918/2018 21004MPS 9999 SCT023 BKN040 TX23/2008Z TN14/1923Z

Waarnemingen en weersverwachtingen van meer dan 4000 vliegvelden (METAR en TAF).

De beschikbare stations zijn de gele en rode punten op de kaart.

Ga met uw muis naar het station om de naam te zien.

Klik dan om waarnemingen en weersverwachtingen te zien.

kaart wijzigen: klik op de groene knoppen met een zwart kruis om in te zoomen, op de groene knop met een streepje om uit te zoomen of op de groene pijlen voor aangrenzende kaarten.


METAR-TAF: